createdAt,value
2019-01-24T00:02:30.460Z,42.00
2019-01-24T00:05:19.343Z,42.00
2019-01-24T00:08:07.525Z,41.90
2019-01-24T00:10:55.570Z,41.90
2019-01-24T00:13:43.644Z,41.80
2019-01-24T00:16:31.920Z,41.70
2019-01-24T00:19:20.515Z,41.80
2019-01-24T00:22:09.077Z,41.80
2019-01-24T00:24:57.157Z,41.80
2019-01-24T00:27:45.598Z,41.70
2019-01-24T00:30:34.239Z,41.70
2019-01-24T00:33:22.699Z,41.70
2019-01-24T00:36:10.827Z,41.70
2019-01-24T00:38:58.967Z,41.70
2019-01-24T00:41:47.094Z,41.70
2019-01-24T00:44:35.620Z,41.70
2019-01-24T00:47:23.739Z,41.60
2019-01-24T00:50:14.657Z,41.70
2019-01-24T00:53:03.078Z,41.70
2019-01-24T00:55:51.801Z,41.80
2019-01-24T00:58:40.310Z,41.80
2019-01-24T01:01:28.854Z,41.80
2019-01-24T01:04:17.407Z,41.70
2019-01-24T01:07:06.664Z,41.70
2019-01-24T01:09:54.839Z,41.70
2019-01-24T01:12:43.429Z,41.70
2019-01-24T01:15:31.737Z,41.60
2019-01-24T01:18:19.648Z,41.70
2019-01-24T01:21:07.982Z,41.60
2019-01-24T01:23:56.799Z,41.60
2019-01-24T01:26:45.230Z,41.60
2019-01-24T01:29:33.512Z,41.60
2019-01-24T01:32:22.063Z,41.60
2019-01-24T01:35:10.631Z,41.60
2019-01-24T01:37:59.164Z,41.60
2019-01-24T01:40:47.527Z,41.50
2019-01-24T01:43:35.768Z,41.50
2019-01-24T01:46:24.927Z,41.50
2019-01-24T01:49:13.521Z,41.50
2019-01-24T01:52:01.642Z,41.40
2019-01-24T01:54:49.783Z,41.40
2019-01-24T01:57:38.381Z,41.40
2019-01-24T02:00:27.711Z,41.40
2019-01-24T02:03:15.777Z,41.40
2019-01-24T02:06:04.388Z,41.40
2019-01-24T02:08:52.593Z,41.30
2019-01-24T02:11:40.869Z,41.40
2019-01-24T02:14:29.196Z,41.40
2019-01-24T02:17:17.388Z,41.50
2019-01-24T02:20:08.522Z,41.40
2019-01-24T02:22:57.028Z,41.40
2019-01-24T02:25:45.142Z,41.40
2019-01-24T02:28:33.430Z,41.40
2019-01-24T02:31:22.183Z,41.50
2019-01-24T02:34:10.891Z,41.40
2019-01-24T02:36:59.415Z,41.40
2019-01-24T02:39:47.753Z,41.50
2019-01-24T02:42:36.142Z,41.50
2019-01-24T02:45:25.624Z,41.50
2019-01-24T02:48:14.252Z,41.50
2019-01-24T02:51:02.684Z,41.60
2019-01-24T02:53:51.005Z,41.50
2019-01-24T02:56:39.548Z,41.60
2019-01-24T02:59:28.000Z,41.40
2019-01-24T03:02:16.155Z,41.40
2019-01-24T03:05:08.215Z,41.40
2019-01-24T03:07:56.754Z,41.40
2019-01-24T03:10:45.296Z,41.40
2019-01-24T03:13:33.356Z,41.30
2019-01-24T03:16:22.209Z,41.20
2019-01-24T03:19:10.708Z,41.20
2019-01-24T03:21:59.329Z,41.20
2019-01-24T03:24:47.533Z,41.20
2019-01-24T03:27:35.825Z,41.10
2019-01-24T03:30:24.631Z,41.00
2019-01-24T03:33:12.777Z,41.00
2019-01-24T03:36:00.918Z,41.00
2019-01-24T03:38:49.246Z,41.00
2019-01-24T03:41:37.982Z,41.00
2019-01-24T03:44:26.154Z,41.00
2019-01-24T03:47:14.456Z,41.10
2019-01-24T03:50:03.672Z,41.00
2019-01-24T03:52:52.736Z,41.00
2019-01-24T03:55:41.057Z,41.00
2019-01-24T03:58:29.304Z,40.90
2019-01-24T04:01:17.660Z,40.90
2019-01-24T04:04:05.869Z,40.80
2019-01-24T04:06:53.976Z,40.80
2019-01-24T04:09:42.256Z,40.80
2019-01-24T04:12:30.350Z,40.80
2019-01-24T04:15:21.228Z,40.80
2019-01-24T04:18:09.480Z,40.80
2019-01-24T04:20:57.666Z,40.80
2019-01-24T04:23:45.800Z,40.80
2019-01-24T04:26:33.854Z,40.70
2019-01-24T04:29:22.258Z,40.80
2019-01-24T04:32:10.744Z,40.80
2019-01-24T04:34:58.865Z,40.70
2019-01-24T04:37:47.042Z,40.70
2019-01-24T04:40:35.830Z,40.60
2019-01-24T04:43:24.398Z,40.60
2019-01-24T04:46:13.177Z,40.70
2019-01-24T04:49:01.515Z,40.70
2019-01-24T04:51:50.024Z,40.80
2019-01-24T04:54:38.115Z,40.80
2019-01-24T04:57:26.503Z,40.80
2019-01-24T05:00:20.746Z,40.70
2019-01-24T05:03:09.407Z,40.70
2019-01-24T05:05:58.340Z,40.70
2019-01-24T05:08:46.603Z,40.70
2019-01-24T05:11:35.139Z,40.60
2019-01-24T05:14:23.462Z,40.50
2019-01-24T05:17:11.780Z,40.60
2019-01-24T05:20:00.037Z,40.70
2019-01-24T05:22:48.537Z,40.60
2019-01-24T05:25:36.774Z,40.60
2019-01-24T05:28:25.217Z,40.60
2019-01-24T05:31:13.355Z,40.60
2019-01-24T05:34:01.230Z,40.60
2019-01-24T05:36:49.380Z,40.60
2019-01-24T05:39:37.718Z,40.60
2019-01-24T05:42:26.022Z,40.50
2019-01-24T05:45:15.681Z,40.60
2019-01-24T05:48:04.181Z,40.60
2019-01-24T05:50:52.351Z,40.60
2019-01-24T05:53:40.742Z,40.60
2019-01-24T05:56:28.999Z,40.60
2019-01-24T05:59:17.056Z,40.50
2019-01-24T06:02:05.863Z,40.60
2019-01-24T06:04:54.143Z,40.60
2019-01-24T06:07:42.779Z,40.60
2019-01-24T06:10:31.739Z,40.70
2019-01-24T06:13:19.807Z,40.70
2019-01-24T06:16:07.867Z,40.90
2019-01-24T06:18:56.339Z,40.80
2019-01-24T06:21:44.919Z,40.80
2019-01-24T06:24:32.974Z,40.70
2019-01-24T06:27:21.417Z,40.80
2019-01-24T06:30:18.698Z,40.80
2019-01-24T06:33:06.799Z,40.80
2019-01-24T06:35:55.162Z,40.80
2019-01-24T06:38:44.899Z,40.80
2019-01-24T06:41:33.739Z,40.80
2019-01-24T06:44:22.229Z,40.80
2019-01-24T06:47:10.816Z,40.80
2019-01-24T06:49:59.011Z,41.00
2019-01-24T06:52:47.312Z,41.00
2019-01-24T06:55:35.959Z,41.00
2019-01-24T06:58:23.942Z,41.20
2019-01-24T07:01:12.270Z,41.20
2019-01-24T07:04:00.507Z,41.10
2019-01-24T07:06:48.971Z,41.10
2019-01-24T07:09:37.263Z,41.00
2019-01-24T07:12:25.461Z,41.00
2019-01-24T07:15:19.367Z,41.00
2019-01-24T07:18:07.622Z,41.00
2019-01-24T07:20:56.175Z,41.20
2019-01-24T07:23:44.722Z,41.40
2019-01-24T07:26:33.125Z,41.60
2019-01-24T07:29:21.556Z,41.80
2019-01-24T07:32:09.896Z,41.80
2019-01-24T07:34:59.022Z,42.20
2019-01-24T07:37:47.524Z,41.80
2019-01-24T07:40:36.566Z,41.30
2019-01-24T07:43:24.633Z,40.30
2019-01-24T07:46:13.280Z,39.80
2019-01-24T07:49:01.621Z,39.70
2019-01-24T07:51:50.056Z,39.60
2019-01-24T07:54:38.431Z,39.60
2019-01-24T07:57:26.917Z,39.60
2019-01-24T08:00:23.362Z,39.50
2019-01-24T08:03:11.417Z,39.50
2019-01-24T08:05:59.907Z,39.60
2019-01-24T08:08:48.558Z,40.70
2019-01-24T08:11:36.637Z,41.10
2019-01-24T08:14:24.922Z,41.10
2019-01-24T08:17:13.612Z,41.00
2019-01-24T08:20:01.915Z,41.30
2019-01-24T08:22:50.360Z,41.50
2019-01-24T08:25:38.487Z,41.30
2019-01-24T08:28:26.760Z,41.30
2019-01-24T08:31:14.988Z,40.90
2019-01-24T08:34:03.591Z,40.70
2019-01-24T08:36:51.727Z,40.70
2019-01-24T08:39:40.231Z,40.40
2019-01-24T08:42:28.783Z,40.30
2019-01-24T08:45:18.218Z,40.20
2019-01-24T08:48:07.774Z,40.10
2019-01-24T08:50:55.790Z,40.00
2019-01-24T08:53:44.192Z,40.00
2019-01-24T08:56:32.380Z,40.00
2019-01-24T08:59:20.608Z,39.90
2019-01-24T09:02:08.922Z,39.80
2019-01-24T09:04:57.364Z,39.90
2019-01-24T09:07:46.747Z,39.90
2019-01-24T09:10:37.624Z,39.90
2019-01-24T09:13:25.855Z,39.90
2019-01-24T09:16:14.244Z,39.90
2019-01-24T09:19:02.453Z,39.80
2019-01-24T09:21:50.519Z,39.80
2019-01-24T09:24:38.911Z,39.90
2019-01-24T09:27:27.369Z,39.80
2019-01-24T09:30:27.044Z,39.70
2019-01-24T09:33:15.326Z,39.70
2019-01-24T09:36:03.866Z,39.70
2019-01-24T09:38:52.009Z,39.70
2019-01-24T09:41:40.266Z,39.60
2019-01-24T09:44:28.497Z,39.60
2019-01-24T09:47:17.018Z,39.60
2019-01-24T09:50:08.663Z,39.50
2019-01-24T09:52:56.971Z,39.40
2019-01-24T09:55:45.991Z,39.60
2019-01-24T09:58:34.225Z,39.60
2019-01-24T10:01:23.173Z,39.60
2019-01-24T10:04:11.508Z,39.50
2019-01-24T10:06:59.931Z,39.50
2019-01-24T10:09:48.322Z,39.40
2019-01-24T10:12:36.937Z,39.50
2019-01-24T10:15:25.559Z,39.50
2019-01-24T10:18:13.790Z,39.50
2019-01-24T10:21:03.373Z,39.60
2019-01-24T10:23:52.049Z,39.40
2019-01-24T10:26:40.689Z,39.40
2019-01-24T10:29:29.209Z,39.40
2019-01-24T10:32:17.745Z,39.30
2019-01-24T10:35:06.385Z,39.20
2019-01-24T10:37:56.007Z,39.30
2019-01-24T10:40:44.249Z,39.30
2019-01-24T10:43:32.373Z,39.30
2019-01-24T10:46:20.592Z,39.30
2019-01-24T10:49:08.847Z,39.30
2019-01-24T10:51:57.322Z,39.30
2019-01-24T10:54:45.763Z,39.20
2019-01-24T10:57:34.329Z,39.20
2019-01-24T11:00:32.909Z,39.20
2019-01-24T11:03:21.173Z,39.10
2019-01-24T11:06:09.899Z,39.10
2019-01-24T11:08:58.913Z,39.00
2019-01-24T11:11:46.997Z,39.00
2019-01-24T11:14:35.099Z,39.10
2019-01-24T11:17:23.632Z,39.20
2019-01-24T11:20:15.166Z,39.20
2019-01-24T11:23:03.310Z,39.20
2019-01-24T11:25:35.010Z,39.10
2019-01-24T11:28:07.231Z,39.30
2019-01-24T11:30:38.900Z,39.30
2019-01-24T11:33:11.214Z,39.50
2019-01-24T11:35:42.774Z,40.20
2019-01-24T11:38:14.864Z,39.60
2019-01-24T11:40:48.448Z,39.60
2019-01-24T11:43:19.994Z,39.60
2019-01-24T11:45:51.588Z,39.60
2019-01-24T11:48:23.106Z,39.60
2019-01-24T11:50:54.630Z,39.70
2019-01-24T11:53:26.142Z,39.60
2019-01-24T11:55:57.754Z,39.60
2019-01-24T11:58:29.565Z,39.60
2019-01-24T12:01:01.092Z,39.60
2019-01-24T12:03:33.097Z,39.60
2019-01-24T12:06:06.402Z,39.70
2019-01-24T12:08:37.976Z,39.80
2019-01-24T12:11:09.506Z,39.90
2019-01-24T12:13:41.018Z,39.90
2019-01-24T12:16:12.546Z,39.80
2019-01-24T12:18:44.695Z,39.80
2019-01-24T12:21:16.224Z,39.70
2019-01-24T12:23:48.200Z,39.70
2019-01-24T12:26:19.811Z,39.60
2019-01-24T12:28:51.308Z,39.60
2019-01-24T12:31:22.832Z,39.60
2019-01-24T12:33:54.361Z,39.60
2019-01-24T12:36:25.941Z,39.50
2019-01-24T12:38:57.833Z,39.50
2019-01-24T12:41:29.511Z,39.40
2019-01-24T12:44:01.122Z,39.30
2019-01-24T12:46:32.712Z,39.20
2019-01-24T12:49:04.718Z,39.20
2019-01-24T12:51:36.295Z,39.20
2019-01-24T12:54:07.829Z,39.30
2019-01-24T12:56:39.421Z,39.30
2019-01-24T12:59:10.955Z,39.50
2019-01-24T13:01:42.459Z,39.60
2019-01-24T13:04:14.003Z,39.30
2019-01-24T13:07:02.246Z,39.20
2019-01-24T13:09:50.901Z,39.10
2019-01-24T13:12:39.044Z,39.60
2019-01-24T13:15:29.877Z,41.20
2019-01-24T13:18:19.567Z,42.50
2019-01-24T13:21:08.366Z,42.80
2019-01-24T13:23:56.392Z,43.00
2019-01-24T13:26:45.286Z,42.90
2019-01-24T13:29:33.259Z,43.00
2019-01-24T13:32:21.507Z,43.00
2019-01-24T13:35:09.795Z,42.50
2019-01-24T13:37:58.530Z,42.30
2019-01-24T13:40:46.830Z,42.00
2019-01-24T13:43:35.003Z,41.80
2019-01-24T13:46:23.366Z,41.60
2019-01-24T13:49:11.958Z,41.50
2019-01-24T13:52:00.401Z,41.40
2019-01-24T13:54:48.356Z,41.30
2019-01-24T13:57:36.810Z,41.80
2019-01-24T14:00:31.423Z,42.00
2019-01-24T14:03:24.655Z,41.80
2019-01-24T14:06:12.727Z,41.80
2019-01-24T14:09:01.492Z,41.80
2019-01-24T14:11:49.864Z,41.80
2019-01-24T14:14:38.282Z,41.70
2019-01-24T14:17:26.396Z,41.60
2019-01-24T14:20:20.300Z,41.60
2019-01-24T14:23:08.641Z,41.40
2019-01-24T14:25:57.068Z,41.60
2019-01-24T14:28:45.452Z,41.40
2019-01-24T14:31:33.875Z,41.50
2019-01-24T14:34:22.147Z,41.10
2019-01-24T14:37:10.489Z,40.90
2019-01-24T14:39:58.933Z,40.90
2019-01-24T14:42:47.701Z,40.80
2019-01-24T14:45:36.714Z,40.60
2019-01-24T14:48:25.177Z,40.50
2019-01-24T14:51:13.424Z,40.50
2019-01-24T14:54:01.846Z,40.30
2019-01-24T14:56:49.904Z,40.30
2019-01-24T14:59:38.339Z,40.20
2019-01-24T15:02:26.574Z,40.20
2019-01-24T15:05:15.133Z,40.10
2019-01-24T15:08:04.059Z,40.10
2019-01-24T15:10:51.956Z,40.10
2019-01-24T15:13:40.340Z,40.10
2019-01-24T15:16:28.377Z,40.10
2019-01-24T15:19:18.243Z,40.10
2019-01-24T15:22:06.854Z,40.10
2019-01-24T15:24:55.327Z,40.20
2019-01-24T15:27:44.516Z,40.20
2019-01-24T15:30:33.385Z,40.20
2019-01-24T15:33:21.493Z,40.10
2019-01-24T15:36:10.035Z,40.10
2019-01-24T15:38:58.476Z,40.10
2019-01-24T15:41:46.712Z,40.00
2019-01-24T15:44:34.946Z,39.90
2019-01-24T15:47:23.484Z,39.90
2019-01-24T15:50:14.758Z,39.80
2019-01-24T15:53:03.079Z,39.80
2019-01-24T15:55:51.651Z,39.80
2019-01-24T15:58:39.905Z,39.80
2019-01-24T16:01:28.260Z,39.90
2019-01-24T16:04:19.931Z,39.80
2019-01-24T16:07:06.845Z,39.90
2019-01-24T16:09:55.386Z,39.80
2019-01-24T16:12:43.943Z,39.80
2019-01-24T16:15:18.514Z,39.90
2019-01-24T16:17:50.121Z,39.80
2019-01-24T16:20:26.473Z,39.60
2019-01-24T16:22:58.061Z,39.70
2019-01-24T16:25:34.135Z,39.90
2019-01-24T16:28:05.851Z,39.80
2019-01-24T16:30:38.599Z,39.80
2019-01-24T16:33:10.262Z,39.90
2019-01-24T16:35:41.958Z,39.80
2019-01-24T16:38:13.539Z,39.80
2019-01-24T16:40:45.148Z,39.80
2019-01-24T16:43:16.732Z,39.70
2019-01-24T16:45:48.262Z,39.60
2019-01-24T16:48:19.782Z,39.60
2019-01-24T16:50:51.387Z,39.50
2019-01-24T16:53:22.984Z,39.50
2019-01-24T16:55:54.579Z,39.60
2019-01-24T16:58:26.099Z,39.50
2019-01-24T17:00:57.878Z,39.40
2019-01-24T17:03:29.489Z,39.40
2019-01-24T17:05:59.244Z,39.40
2019-01-24T17:08:47.713Z,39.40
2019-01-24T17:11:35.990Z,39.40
2019-01-24T17:14:24.271Z,39.40
2019-01-24T17:17:12.648Z,39.40
2019-01-24T17:20:00.747Z,39.50
2019-01-24T17:22:49.856Z,39.50
2019-01-24T17:25:38.228Z,39.40
2019-01-24T17:28:26.515Z,39.40
2019-01-24T17:31:15.012Z,39.40
2019-01-24T17:34:03.402Z,39.30
2019-01-24T17:36:51.610Z,39.30
2019-01-24T17:39:40.076Z,39.30
2019-01-24T17:42:28.420Z,39.30
2019-01-24T17:45:16.836Z,39.30
2019-01-24T17:48:06.432Z,39.30
2019-01-24T17:50:54.964Z,39.20
2019-01-24T17:53:43.690Z,39.20
2019-01-24T17:56:32.202Z,39.20
2019-01-24T17:59:20.668Z,39.10
2019-01-24T18:02:09.237Z,39.10
2019-01-24T18:04:57.906Z,39.00
2019-01-24T18:07:46.357Z,39.00
2019-01-24T18:10:34.758Z,39.10
2019-01-24T18:13:23.453Z,39.10
2019-01-24T18:16:11.614Z,39.00
2019-01-24T18:19:00.241Z,39.00
2019-01-24T18:21:48.420Z,39.10
2019-01-24T18:24:36.681Z,39.10
2019-01-24T18:27:25.196Z,39.20
2019-01-24T18:30:19.827Z,39.30
2019-01-24T18:33:07.912Z,39.40
2019-01-24T18:35:56.254Z,39.40
2019-01-24T18:38:44.852Z,39.40
2019-01-24T18:41:33.542Z,39.50
2019-01-24T18:44:22.011Z,39.40
2019-01-24T18:47:10.716Z,39.50
2019-01-24T18:49:59.338Z,39.50
2019-01-24T18:52:48.639Z,39.50
2019-01-24T18:55:36.681Z,39.50
2019-01-24T18:58:24.751Z,39.50
2019-01-24T19:01:13.273Z,39.50
2019-01-24T19:04:01.616Z,39.50
2019-01-24T19:06:50.105Z,39.40
2019-01-24T19:09:38.881Z,39.40
2019-01-24T19:12:26.944Z,39.40
2019-01-24T19:15:18.492Z,39.40
2019-01-24T19:18:08.065Z,39.40
2019-01-24T19:20:56.399Z,39.40
2019-01-24T19:23:44.930Z,39.30
2019-01-24T19:26:33.389Z,39.30
2019-01-24T19:29:21.809Z,39.30
2019-01-24T19:32:10.581Z,39.20
2019-01-24T19:34:59.006Z,39.20
2019-01-24T19:37:47.781Z,39.20
2019-01-24T19:40:36.181Z,39.20
2019-01-24T19:43:24.864Z,39.20
2019-01-24T19:46:13.024Z,39.20
2019-01-24T19:49:01.363Z,39.20
2019-01-24T19:51:49.690Z,39.20
2019-01-24T19:54:37.885Z,39.20
2019-01-24T19:57:26.117Z,39.20
2019-01-24T20:00:26.205Z,39.30
2019-01-24T20:03:14.554Z,39.30
2019-01-24T20:06:03.145Z,39.40
2019-01-24T20:08:51.357Z,39.50
2019-01-24T20:11:39.886Z,39.40
2019-01-24T20:14:28.040Z,39.40
2019-01-24T20:17:16.762Z,39.40
2019-01-24T20:20:08.274Z,39.40
2019-01-24T20:22:56.407Z,39.40
2019-01-24T20:25:44.653Z,39.40
2019-01-24T20:28:33.383Z,39.40
2019-01-24T20:31:21.691Z,39.40
2019-01-24T20:34:10.238Z,39.40
2019-01-24T20:36:58.927Z,39.30
2019-01-24T20:39:47.224Z,38.60
2019-01-24T20:42:35.594Z,39.00
2019-01-24T20:45:23.762Z,39.20
2019-01-24T20:48:12.482Z,39.30
2019-01-24T20:51:00.744Z,39.40
2019-01-24T20:53:49.268Z,39.50
2019-01-24T20:56:38.749Z,39.50
2019-01-24T20:59:27.180Z,39.60
2019-01-24T21:02:15.541Z,39.60
2019-01-24T21:05:06.158Z,39.60
2019-01-24T21:07:54.585Z,39.60
2019-01-24T21:10:42.979Z,39.60
2019-01-24T21:13:31.158Z,39.60
2019-01-24T21:16:19.653Z,39.60
2019-01-24T21:19:07.999Z,39.60
2019-01-24T21:21:56.295Z,39.60
2019-01-24T21:24:44.682Z,39.70
2019-01-24T21:27:33.356Z,39.60
2019-01-24T21:30:25.013Z,39.60
2019-01-24T21:33:13.227Z,39.70
2019-01-24T21:36:01.584Z,39.70
2019-01-24T21:38:49.808Z,39.70
2019-01-24T21:41:37.993Z,39.80
2019-01-24T21:44:26.075Z,39.80
2019-01-24T21:47:14.328Z,39.90
2019-01-24T21:50:02.565Z,40.00
2019-01-24T21:52:51.259Z,40.00
2019-01-24T21:55:39.575Z,40.10
2019-01-24T21:58:28.573Z,40.20
2019-01-24T22:01:17.361Z,40.30
2019-01-24T22:04:05.637Z,40.40
2019-01-24T22:06:54.291Z,40.50
2019-01-24T22:09:42.598Z,40.60
2019-01-24T22:12:31.311Z,40.70
2019-01-24T22:15:22.819Z,40.80
2019-01-24T22:18:11.269Z,40.90
2019-01-24T22:20:59.751Z,41.00
2019-01-24T22:23:48.241Z,41.10
2019-01-24T22:26:36.713Z,41.20
2019-01-24T22:29:25.005Z,41.10
2019-01-24T22:32:13.306Z,41.30
2019-01-24T22:35:01.512Z,41.40
2019-01-24T22:37:49.958Z,41.40
2019-01-24T22:40:38.260Z,41.50
2019-01-24T22:43:26.771Z,41.60
2019-01-24T22:46:15.022Z,41.60
2019-01-24T22:49:03.467Z,41.70
2019-01-24T22:51:51.821Z,41.80
2019-01-24T22:54:40.102Z,41.90
2019-01-24T22:57:28.520Z,42.00
2019-01-24T23:00:51.150Z,42.00
2019-01-24T23:03:42.831Z,42.10
2019-01-24T23:06:31.085Z,42.20
2019-01-24T23:09:19.398Z,42.20
2019-01-24T23:12:07.874Z,42.20
2019-01-24T23:14:56.433Z,42.20
2019-01-24T23:17:44.461Z,42.10
2019-01-24T23:20:32.900Z,42.10
2019-01-24T23:23:21.155Z,42.00
2019-01-24T23:26:09.542Z,42.00
2019-01-24T23:28:57.985Z,41.90
2019-01-24T23:31:46.582Z,41.90
2019-01-24T23:34:34.924Z,41.80
2019-01-24T23:37:23.159Z,41.80
2019-01-24T23:40:12.238Z,41.80
2019-01-24T23:43:00.820Z,41.70
2019-01-24T23:45:49.895Z,41.70
2019-01-24T23:48:38.334Z,41.70
2019-01-24T23:51:26.695Z,41.60
2019-01-24T23:54:15.976Z,41.60
2019-01-24T23:57:04.512Z,41.50
2019-01-24T23:59:52.910Z,41.50
